Time;durP1;ratioP1;P1;durP2;ratioP2;P2;SDS_P1;SDS_P2;PMS_P1;PMS_P2;Temp;Humidity;BMP_temperature;BMP_pressure;BME280_temperature;BME280_humidity;BME280_pressure;Samples;Min_cycle;Max_cycle;Signal;HPM_P1;HPM_P2
2022/07/16 00:07:44;;;;;;;9.43;4.07;;;32.80;23.20;;;;;;21249898;27;20046;-56
2022/07/16 00:17:46;;;;;;;8.77;3.55;;;32.60;23.80;;;;;;21249482;27;20454;-56
2022/07/16 00:27:47;;;;;;;5.93;3.83;;;32.50;24.20;;;;;;21249000;27;20130;-57
2022/07/16 00:37:49;;;;;;;8.93;3.05;;;32.20;24.60;;;;;;21249391;27;20054;-58
2022/07/16 00:47:51;;;;;;;10.82;3.40;;;32.10;25.20;;;;;;21248335;27;20623;-58
2022/07/16 00:57:53;;;;;;;7.47;3.50;;;31.90;25.60;;;;;;21247187;28;20051;-55
2022/07/16 01:07:55;;;;;;;7.82;3.50;;;31.80;25.80;;;;;;21247035;28;20053;-55
2022/07/16 01:17:57;;;;;;;6.60;3.60;;;31.60;26.10;;;;;;21246614;28;20108;-58
2022/07/16 01:27:59;;;;;;;8.25;3.05;;;31.50;26.20;;;;;;21246440;28;20586;-57
2022/07/16 01:38:01;;;;;;;8.73;3.47;;;31.40;26.30;;;;;;21245888;28;20051;-57
2022/07/16 01:48:06;;;;;;;12.32;7.80;;;31.30;26.50;;;;;;21245341;28;20439;-56
2022/07/16 01:58:14;;;;;;;6.18;5.43;;;31.10;26.50;;;;;;21258732;27;20051;-57
2022/07/16 02:08:18;;;;;;;8.38;3.80;;;31.00;26.70;;;;;;21259183;27;20080;-56
2022/07/16 02:18:23;;;;;;;4.20;3.80;;;30.90;26.80;;;;;;21258827;27;20050;-56
2022/07/16 02:28:28;;;;;;;5.93;3.60;;;30.70;26.80;;;;;;21257954;27;20043;-56
2022/07/16 02:38:31;;;;;;;6.43;3.28;;;30.60;27.00;;;;;;21257164;27;20133;-55
2022/07/16 02:48:35;;;;;;;5.03;3.35;;;30.60;26.90;;;;;;21256893;27;20054;-55
2022/07/16 02:58:39;;;;;;;5.65;3.30;;;30.40;27.10;;;;;;21256001;27;20051;-55
2022/07/16 03:08:41;;;;;;;4.25;3.30;;;30.30;27.10;;;;;;21254303;27;20047;-55
2022/07/16 03:18:44;;;;;;;6.20;3.72;;;30.20;27.20;;;;;;21254699;27;20054;-55
2022/07/16 03:28:46;;;;;;;5.13;4.18;;;30.10;27.50;;;;;;21253442;27;20126;-54
2022/07/16 03:39:04;;;;;;;8.90;8.00;;;30.00;27.60;;;;;;21252818;27;20103;-56
2022/07/16 03:49:07;;;;;;;11.77;9.40;;;29.90;27.60;;;;;;21251335;27;20039;-56
2022/07/16 03:59:10;;;;;;;10.57;6.03;;;29.70;27.80;;;;;;21250570;27;20429;-56
2022/07/16 04:09:12;;;;;;;10.55;5.13;;;29.60;27.90;;;;;;21249950;27;20502;-56
2022/07/16 04:19:14;;;;;;;5.70;4.40;;;29.60;27.60;;;;;;21249834;27;20053;-61
2022/07/16 04:29:16;;;;;;;8.77;5.63;;;29.50;27.60;;;;;;21250073;27;20050;-56
2022/07/16 04:39:18;;;;;;;6.68;5.18;;;29.40;27.70;;;;;;21248376;27;20050;-55
2022/07/16 04:49:22;;;;;;;6.70;5.32;;;29.20;27.60;;;;;;21248630;27;20466;-53
2022/07/16 04:59:25;;;;;;;8.65;5.82;;;29.20;27.60;;;;;;21248508;27;20051;-56
2022/07/16 05:09:26;;;;;;;12.15;5.57;;;29.10;27.50;;;;;;21247017;28;20047;-55
2022/07/16 05:19:29;;;;;;;10.95;4.22;;;29.10;27.70;;;;;;21246738;28;20457;-56
2022/07/16 05:29:30;;;;;;;7.03;4.13;;;29.00;27.70;;;;;;21255984;27;20440;-57
2022/07/16 05:39:33;;;;;;;8.32;6.68;;;29.00;27.80;;;;;;21244246;27;20054;-56
2022/07/16 05:49:34;;;;;;;6.72;3.95;;;28.90;28.10;;;;;;21262578;27;20047;-57
2022/07/16 05:59:36;;;;;;;8.32;4.07;;;28.90;28.30;;;;;;21261155;27;20051;-57
2022/07/16 06:09:38;;;;;;;9.02;4.63;;;28.90;28.10;;;;;;21259291;27;20051;-57
2022/07/16 06:19:41;;;;;;;5.65;4.07;;;29.00;28.00;;;;;;21259038;27;20047;-57
2022/07/16 06:29:43;;;;;;;4.93;4.43;;;28.90;28.00;;;;;;21259644;27;20074;-56
2022/07/16 06:39:45;;;;;;;9.98;4.93;;;29.00;28.00;;;;;;21257353;27;20106;-55
2022/07/16 06:49:46;;;;;;;7.25;4.47;;;29.10;27.90;;;;;;21258128;27;20126;-57
2022/07/16 06:59:48;;;;;;;5.30;4.80;;;29.10;27.70;;;;;;21255858;27;20078;-58
2022/07/16 07:09:50;;;;;;;6.65;4.00;;;29.50;27.60;;;;;;21254920;27;20102;-55
2022/07/16 07:19:52;;;;;;;5.57;4.25;;;30.10;27.10;;;;;;21253753;27;20410;-57
2022/07/16 07:29:53;;;;;;;6.80;4.25;;;30.70;26.50;;;;;;21253729;27;20509;-56
2022/07/16 07:39:55;;;;;;;9.27;4.95;;;31.00;26.40;;;;;;21252601;27;20384;-57
2022/07/16 07:49:57;;;;;;;7.68;4.00;;;31.50;25.90;;;;;;21252527;27;20043;-55
2022/07/16 07:59:59;;;;;;;5.90;3.50;;;31.60;25.90;;;;;;21251154;27;20071;-57
2022/07/16 08:10:02;;;;;;;4.82;3.53;;;32.00;25.80;;;;;;21250300;27;20126;-57
2022/07/16 08:20:05;;;;;;;6.95;4.10;;;32.30;25.50;;;;;;21249366;27;20054;-57
2022/07/16 08:30:07;;;;;;;8.07;3.95;;;32.60;25.20;;;;;;21249100;27;20431;-56
2022/07/16 08:40:11;;;;;;;4.90;3.45;;;32.70;25.20;;;;;;21248511;27;20051;-57
2022/07/16 08:50:15;;;;;;;5.07;3.35;;;33.10;24.80;;;;;;21248219;27;20047;-58
2022/07/16 09:00:18;;;;;;;5.40;3.58;;;33.30;24.60;;;;;;21248527;27;20047;-55
2022/07/16 09:10:20;;;;;;;8.05;4.85;;;33.50;24.10;;;;;;21264624;27;20059;-57
2022/07/16 09:20:31;;;;;;;10.35;4.57;;;33.60;23.70;;;;;;21264453;27;20051;-56
2022/07/16 09:30:33;;;;;;;14.48;4.88;;;34.00;23.90;;;;;;21263052;27;20130;-58
2022/07/16 09:40:39;;;;;;;6.18;4.88;;;34.20;23.60;;;;;;21261818;27;20050;-57
2022/07/16 09:50:41;;;;;;;7.82;5.35;;;34.40;23.80;;;;;;21250519;27;20070;-57
2022/07/16 10:00:43;;;;;;;6.10;5.43;;;34.60;23.20;;;;;;21257601;27;20110;-59
2022/07/16 10:10:46;;;;;;;8.23;4.93;;;34.90;23.10;;;;;;21246259;27;20451;-58
2022/07/16 10:21:04;;;;;;;6.13;5.53;;;35.10;22.90;;;;;;21260671;27;20082;-58
2022/07/16 10:31:39;;;;;;;8.75;5.57;;;35.20;22.50;;;;;;21259313;27;20475;-55
2022/07/16 10:41:51;;;;;;;9.30;6.43;;;35.40;22.10;;;;;;21254248;27;20142;-59
2022/07/16 10:52:14;;;;;;;7.05;6.10;;;35.60;21.60;;;;;;21256560;27;20143;-53
2022/07/16 11:02:17;;;;;;;7.43;5.80;;;36.00;21.20;;;;;;21255443;27;20069;-55
2022/07/16 11:12:24;;;;;;;6.70;6.10;;;36.10;21.00;;;;;;21254444;27;20055;-58
2022/07/16 11:22:28;;;;;;;12.57;6.13;;;36.30;20.80;;;;;;21253939;27;20092;-57
2022/07/16 11:32:29;;;;;;;6.68;6.03;;;36.50;20.90;;;;;;21254798;27;20559;-57
2022/07/16 11:42:31;;;;;;;7.70;6.47;;;36.70;20.10;;;;;;21252797;27;20445;-57
2022/07/16 11:52:32;;;;;;;9.32;7.00;;;36.80;20.00;;;;;;21253043;27;20498;-56
2022/07/16 12:02:43;;;;;;;7.80;5.88;;;36.90;20.00;;;;;;21252733;27;20506;-55
2022/07/16 12:12:45;;;;;;;8.90;6.22;;;37.10;19.20;;;;;;21232321;27;20082;-57
2022/07/16 12:23:00;;;;;;;9.20;5.22;;;37.10;19.60;;;;;;21251853;27;20053;-56
2022/07/16 12:33:05;;;;;;;8.68;7.03;;;37.40;18.80;;;;;;21252052;27;20057;-55
2022/07/16 12:43:06;;;;;;;7.03;5.55;;;37.70;18.50;;;;;;21251064;27;20087;-56
2022/07/16 12:53:08;;;;;;;10.10;5.78;;;37.70;18.40;;;;;;21249790;27;20115;-56
2022/07/16 13:03:10;;;;;;;10.05;5.85;;;37.70;18.10;;;;;;21250512;28;20550;-56
2022/07/16 13:13:11;;;;;;;9.05;5.60;;;37.70;18.30;;;;;;21248536;28;20058;-56
2022/07/16 13:23:13;;;;;;;10.45;6.07;;;37.90;18.00;;;;;;21248480;28;20051;-57
2022/07/16 13:33:16;;;;;;;7.82;5.32;;;37.90;18.00;;;;;;21248689;28;20039;-55
2022/07/16 13:43:20;;;;;;;6.68;4.90;;;38.10;16.90;;;;;;21247538;28;20055;-55
2022/07/16 13:53:23;;;;;;;8.32;4.68;;;38.20;17.10;;;;;;21260352;27;20092;-57
2022/07/16 14:03:26;;;;;;;10.27;5.20;;;38.20;17.30;;;;;;21261061;27;20483;-56
2022/07/16 14:13:28;;;;;;;7.85;4.38;;;38.10;17.20;;;;;;21259684;27;20054;-57
2022/07/16 14:23:30;;;;;;;7.28;4.22;;;38.20;17.10;;;;;;21259617;27;20047;-56
2022/07/16 14:33:32;;;;;;;8.73;4.75;;;38.30;16.90;;;;;;21258208;27;20039;-56
2022/07/16 14:43:33;;;;;;;6.82;4.72;;;38.30;17.00;;;;;;21258804;27;20086;-55
2022/07/16 14:53:36;;;;;;;9.02;4.38;;;38.70;16.10;;;;;;21257987;27;20476;-58
2022/07/16 15:03:38;;;;;;;8.60;4.32;;;38.80;15.70;;;;;;21256287;27;20050;-55
2022/07/16 15:13:39;;;;;;;9.23;4.03;;;38.70;16.10;;;;;;21254303;27;20086;-56
2022/07/16 15:23:41;;;;;;;9.20;4.07;;;38.60;16.10;;;;;;21253391;27;20104;-57
2022/07/16 15:33:43;;;;;;;7.43;4.25;;;38.60;15.90;;;;;;21253268;27;20047;-57
2022/07/16 15:43:45;;;;;;;11.10;4.72;;;38.60;16.10;;;;;;21252933;27;20043;-56
2022/07/16 15:53:47;;;;;;;9.85;5.50;;;38.80;15.60;;;;;;21234480;27;20472;-60
2022/07/16 16:03:49;;;;;;;10.85;4.70;;;39.00;15.70;;;;;;21251965;27;20199;-56
2022/07/16 16:13:50;;;;;;;12.13;5.45;;;39.10;15.30;;;;;;21249812;27;20061;-58
2022/07/16 16:23:52;;;;;;;9.15;4.90;;;38.90;15.70;;;;;;21250456;27;20254;-55
2022/07/16 16:33:54;;;;;;;8.32;5.20;;;38.90;15.80;;;;;;21249979;27;20043;-56
2022/07/16 16:43:56;;;;;;;10.68;5.13;;;38.80;15.60;;;;;;21248391;27;20091;-57
2022/07/16 16:53:57;;;;;;;11.90;5.45;;;38.80;15.50;;;;;;21248908;27;20081;-55
2022/07/16 17:03:59;;;;;;;8.10;4.80;;;38.70;15.60;;;;;;21249748;28;20081;-57
2022/07/16 17:14:01;;;;;;;12.30;5.32;;;38.80;15.90;;;;;;21247325;28;20055;-58
2022/07/16 17:24:04;;;;;;;7.93;5.35;;;38.70;16.20;;;;;;21253204;27;20065;-57
2022/07/16 17:34:05;;;;;;;9.02;4.93;;;38.80;16.50;;;;;;21244760;27;20054;-57
2022/07/16 17:44:07;;;;;;;10.82;4.82;;;38.60;16.60;;;;;;21263431;27;20047;-57
2022/07/16 17:54:09;;;;;;;8.35;5.18;;;38.40;16.60;;;;;;21262537;27;20045;-57
2022/07/16 18:04:10;;;;;;;10.25;5.15;;;38.30;17.00;;;;;;21261373;27;20430;-56
2022/07/16 18:14:12;;;;;;;9.50;5.25;;;38.30;16.80;;;;;;21259259;27;20100;-57
2022/07/16 18:24:14;;;;;;;7.95;4.82;;;38.30;16.80;;;;;;21260028;27;20050;-58
2022/07/16 18:34:16;;;;;;;11.13;4.97;;;38.20;16.40;;;;;;21258767;27;20046;-56
2022/07/16 18:44:17;;;;;;;8.95;4.13;;;38.10;16.50;;;;;;21258602;27;20407;-57
2022/07/16 18:54:20;;;;;;;8.85;4.57;;;38.00;15.40;;;;;;21257167;27;20044;-58
2022/07/16 19:04:22;;;;;;;7.68;4.85;;;37.80;15.30;;;;;;21255757;27;20134;-55
2022/07/16 19:14:25;;;;;;;5.20;3.85;;;37.60;15.10;;;;;;21254654;27;20531;-56
2022/07/16 19:24:26;;;;;;;7.40;4.20;;;37.50;14.90;;;;;;21254187;27;20051;-56
2022/07/16 19:34:29;;;;;;;8.25;4.32;;;37.30;15.10;;;;;;21254766;27;20100;-59
2022/07/16 19:44:31;;;;;;;7.65;4.28;;;37.10;15.10;;;;;;21251463;27;20710;-57
2022/07/16 19:54:32;;;;;;;11.07;4.18;;;37.00;15.60;;;;;;21252099;27;20047;-57
2022/07/16 20:04:34;;;;;;;7.68;5.15;;;36.70;15.60;;;;;;21251345;27;20051;-56
2022/07/16 20:14:36;;;;;;;7.63;4.30;;;36.60;15.90;;;;;;21250775;27;20130;-57
2022/07/16 20:24:37;;;;;;;9.75;4.15;;;36.40;16.40;;;;;;21251844;27;20051;-57
2022/07/16 20:34:39;;;;;;;8.45;4.45;;;36.20;16.90;;;;;;21249513;27;20047;-56
2022/07/16 20:44:42;;;;;;;8.25;5.15;;;36.00;17.10;;;;;;21248551;27;20043;-55
2022/07/16 20:54:43;;;;;;;7.40;5.55;;;35.90;17.60;;;;;;21247576;27;20058;-57
2022/07/16 21:04:45;;;;;;;10.05;7.80;;;35.70;18.10;;;;;;21247605;27;20188;-58
2022/07/16 21:14:47;;;;;;;11.25;6.75;;;35.40;18.70;;;;;;21248657;28;20039;-56
2022/07/16 21:24:49;;;;;;;12.98;9.88;;;35.30;18.70;;;;;;21247470;28;20051;-58
2022/07/16 21:34:51;;;;;;;11.18;6.40;;;35.10;19.10;;;;;;21246913;28;20051;-57
2022/07/16 21:44:53;;;;;;;10.30;6.25;;;35.00;19.30;;;;;;21247152;28;20058;-56
2022/07/16 21:54:54;;;;;;;14.50;6.63;;;34.80;19.60;;;;;;21247507;28;20535;-59
2022/07/16 22:04:56;;;;;;;12.65;5.90;;;34.60;19.90;;;;;;21229179;28;20051;-57
2022/07/16 22:14:58;;;;;;;10.77;5.88;;;34.50;19.80;;;;;;21259675;27;20054;-57
2022/07/16 22:25:00;;;;;;;11.55;5.80;;;34.40;20.00;;;;;;21260762;27;20096;-56
2022/07/16 22:35:02;;;;;;;12.70;5.65;;;34.30;20.60;;;;;;21260360;27;20049;-56
2022/07/16 22:45:08;;;;;;;9.90;5.70;;;34.10;20.60;;;;;;21260069;27;20506;-56
2022/07/16 22:55:10;;;;;;;11.77;5.80;;;34.00;20.60;;;;;;21258854;27;20131;-54
2022/07/16 23:05:12;;;;;;;8.50;4.63;;;33.70;21.10;;;;;;21256229;27;20108;-55
2022/07/16 23:15:13;;;;;;;6.93;4.45;;;33.60;20.90;;;;;;21254850;27;20160;-54
2022/07/16 23:25:15;;;;;;;6.95;4.57;;;33.50;20.90;;;;;;21254635;27;20043;-57
2022/07/16 23:35:17;;;;;;;7.70;5.13;;;33.40;21.00;;;;;;21253667;27;20043;-55
2022/07/16 23:45:18;;;;;;;13.68;6.97;;;33.30;21.20;;;;;;21253005;27;20086;-53
2022/07/16 23:55:37;;;;;;;14.93;6.40;;;33.00;23.10;;;;;;21252841;27;20472;-56
